No particular awareness of the weather is required.    There are no Weather-warnings


Meteo18 Weather Cam more information Meteo18 Weather Cam


Thunder radar more information blitzortung!


Rain radar more information rain snow radar


Visit our other weather sites:

Template documentation
and downloads

And another site



Weather Underground History page Text

Daily Summary for April 10, 2017 Units:  English    Metric   Both
« Previous Day
Next Day »
Daily Weekly Monthly Yearly Custom
  High: Low: Average:
Temperature: TemperatureC °F 8.1 °F 13.1 °F
Dew Point: DewpointC °F 6.6 °F 8.6 °F
Humidity: Humidity % 57 % 75 %
Wind Speed: WindSpeedKMH mph 0.0 mph 4.1 mph
Wind Gust: WindSpeedGustKMH mph - -
Wind:- - SSW
Pressure: PressurehPa in 1021.9 in -
Precipitation: 0.0 in    
Historical Graphs
 
 
Tabular Data for April 10, 2017
Time Temperature Dew Point Pressure Wind Wind Speed Wind Gust Humidity Rainfall Rate (Hourly)
TemperatureC °F DewpointC °F PressurehPa in Calm     Humidity % HourlyPrecipMM in
00:02 14.1 °F 8.1 °F 1022.6 in Calm     67 % 0.0 in
00:07 13.9 °F 8.1 °F 1022.9 in Calm     68 % 0.0 in
00:12 13.9 °F 8.3 °F 1022.6 in Calm     69 % 0.0 in
00:17 13.9 °F 8.3 °F 1022.9 in Calm     69 % 0.0 in
00:22 14.0 °F 8.2 °F 1022.9 in Calm     68 % 0.0 in
00:32 14.4 °F 8.1 °F 1022.6 in NNE 3.2 mph 4.8 mph 66 % 0.0 in
00:37 14.8 °F 8.3 °F 1022.6 in Calm   4.8 mph 65 % 0.0 in
00:42 14.6 °F 8.1 °F 1022.6 in Calm   4.8 mph 65 % 0.0 in
00:47 14.4 °F 8.1 °F 1022.9 in Calm   3.2 mph 66 % 0.0 in
00:52 14.2 °F 8.2 °F 1022.6 in SSW 1.6 mph 1.6 mph 67 % 0.0 in
00:57 13.7 °F 8.1 °F 1022.9 in Calm   3.2 mph 69 % 0.0 in
01:02 13.6 °F 8.0 °F 1022.9 in Calm   3.2 mph 69 % 0.0 in
01:07 13.6 °F 8.0 °F 1022.9 in Calm   3.2 mph 69 % 0.0 in
01:12 13.3 °F 7.9 °F 1022.9 in Calm   1.6 mph 70 % 0.0 in
01:17 13.1 °F 8.0 °F 1022.6 in Calm     71 % 0.0 in
01:22 12.9 °F 7.8 °F 1022.6 in Calm     71 % 0.0 in
01:27 12.8 °F 7.9 °F 1022.6 in Calm     72 % 0.0 in
01:32 12.4 °F 7.5 °F 1022.6 in Calm     72 % 0.0 in
01:37 12.1 °F 7.6 °F 1022.6 in Calm     74 % 0.0 in
01:42 11.8 °F 7.5 °F 1022.9 in Calm     75 % 0.0 in
01:47 11.7 °F 7.6 °F 1022.9 in Calm   1.6 mph 76 % 0.0 in
01:52 11.7 °F 7.6 °F 1022.9 in SSW 1.6 mph 1.6 mph 76 % 0.0 in
01:57 11.8 °F 7.7 °F 1022.6 in Calm   1.6 mph 76 % 0.0 in
02:02 11.5 °F 7.2 °F 1022.9 in Calm   1.6 mph 75 % 0.0 in
02:07 11.1 °F 7.2 °F 1022.6 in Calm   1.6 mph 77 % 0.0 in
02:12 11.1 °F 7.4 °F 1022.6 in Calm     78 % 0.0 in
02:17 10.9 °F 7.2 °F 1022.6 in Calm     78 % 0.0 in
02:22 10.8 °F 7.3 °F 1022.6 in Calm     79 % 0.0 in
02:32 10.7 °F 7.4 °F 1022.6 in Calm     80 % 0.0 in
02:37 10.6 °F 7.3 °F 1022.6 in Calm     80 % 0.0 in
02:42 10.4 °F 7.3 °F 1022.6 in Calm     81 % 0.0 in
02:47 10.3 °F 7.4 °F 1022.6 in Calm     82 % 0.0 in
02:52 10.2 °F 7.3 °F 1022.6 in Calm     82 % 0.0 in
03:02 10.0 °F 7.2 °F 1022.6 in Calm     83 % 0.0 in
03:07 9.9 °F 7.1 °F 1022.6 in Calm     83 % 0.0 in
03:12 10.1 °F 7.5 °F 1022.2 in Calm   1.6 mph 84 % 0.0 in
03:17 10.1 °F 7.5 °F 1022.2 in Calm   1.6 mph 84 % 0.0 in
03:22 10.2 °F 7.6 °F 1022.2 in Calm   1.6 mph 84 % 0.0 in
03:27 10.2 °F 7.4 °F 1022.2 in Calm     83 % 0.0 in
03:32 10.1 °F 7.3 °F 1022.2 in Calm     83 % 0.0 in
03:37 9.9 °F 7.3 °F 1022.2 in Calm     84 % 0.0 in
03:42 9.9 °F 7.5 °F 1022.2 in Calm     85 % 0.0 in
03:47 9.9 °F 7.5 °F 1022.2 in Calm   1.6 mph 85 % 0.0 in
03:52 9.9 °F 7.3 °F 1022.2 in Calm   1.6 mph 84 % 0.0 in
03:57 9.9 °F 7.5 °F 1022.2 in Calm   1.6 mph 85 % 0.0 in
04:02 9.9 °F 7.3 °F 1022.2 in Calm     84 % 0.0 in
04:07 9.8 °F 7.2 °F 1022.2 in Calm     84 % 0.0 in
04:12 9.6 °F 7.0 °F 1022.2 in Calm     84 % 0.0 in
04:17 9.4 °F 7.0 °F 1022.2 in Calm     85 % 0.0 in
04:22 9.3 °F 7.1 °F 1022.2 in Calm     86 % 0.0 in
04:27 9.6 °F 7.5 °F 1022.2 in Calm     87 % 0.0 in
04:32 9.8 °F 7.4 °F 1021.9 in Calm     85 % 0.0 in
04:37 9.7 °F 7.3 °F 1021.9 in Calm     85 % 0.0 in
04:42 9.6 °F 7.2 °F 1021.9 in Calm   1.6 mph 85 % 0.0 in
04:47 9.5 °F 7.3 °F 1021.9 in Calm   1.6 mph 86 % 0.0 in
04:52 9.5 °F 7.3 °F 1021.9 in Calm   1.6 mph 86 % 0.0 in
04:57 9.3 °F 7.1 °F 1021.9 in Calm   1.6 mph 86 % 0.0 in
05:02 9.3 °F 7.2 °F 1021.9 in Calm   1.6 mph 87 % 0.0 in
05:07 9.3 °F 7.2 °F 1021.9 in Calm     87 % 0.0 in
05:12 9.3 °F 7.2 °F 1021.9 in Calm     87 % 0.0 in
05:17 9.2 °F 7.1 °F 1021.9 in Calm     87 % 0.0 in
05:22 9.1 °F 7.1 °F 1021.9 in Calm     87 % 0.0 in
05:32 8.8 °F 7.1 °F 1021.9 in Calm   1.6 mph 89 % 0.0 in
05:42 9.2 °F 7.5 °F 1021.9 in Calm     89 % 0.0 in
05:47 9.1 °F 7.2 °F 1021.9 in Calm     88 % 0.0 in
05:52 9.1 °F 7.2 °F 1021.9 in Calm     88 % 0.0 in
05:57 9.0 °F 7.1 °F 1021.9 in Calm     88 % 0.0 in
06:02 8.9 °F 7.2 °F 1021.9 in Calm     89 % 0.0 in
06:07 8.8 °F 7.1 °F 1021.9 in Calm     89 % 0.0 in
06:12 8.8 °F 7.1 °F 1021.9 in Calm     89 % 0.0 in
06:17 8.7 °F 7.0 °F 1021.9 in Calm   1.6 mph 89 % 0.0 in
06:22 8.8 °F 7.2 °F 1021.9 in SE 3.2 mph 3.2 mph 90 % 0.0 in
06:27 8.8 °F 7.2 °F 1021.9 in Calm   1.6 mph 90 % 0.0 in
06:32 8.7 °F 7.0 °F 1021.9 in Calm   3.2 mph 89 % 0.0 in
06:42 8.4 °F 6.7 °F 1021.9 in Calm   1.6 mph 89 % 0.0 in
06:47 8.4 °F 6.9 °F 1022.2 in Calm   1.6 mph 90 % 0.0 in
06:52 8.2 °F 6.7 °F 1022.2 in Calm   1.6 mph 90 % 0.0 in
06:57 8.1 °F 6.6 °F 1022.2 in Calm   1.6 mph 90 % 0.0 in
07:02 8.1 °F 6.6 °F 1022.2 in Calm   1.6 mph 90 % 0.0 in
07:12 8.2 °F 6.8 °F 1022.2 in Calm     91 % 0.0 in
07:22 8.2 °F 6.8 °F 1022.2 in SSW 1.6 mph 1.6 mph 91 % 0.0 in
07:32 8.4 °F 7.0 °F 1022.6 in SW 1.6 mph 3.2 mph 91 % 0.0 in
07:37 8.7 °F 7.3 °F 1022.6 in Calm   3.2 mph 91 % 0.0 in
07:42 8.9 °F 7.3 °F 1022.6 in Calm   3.2 mph 90 % 0.0 in
07:47 9.1 °F 7.4 °F 1022.6 in ENE 1.6 mph 3.2 mph 89 % 0.0 in
07:52 8.7 °F 6.8 °F 1022.6 in NE 1.6 mph 3.2 mph 88 % 0.0 in
07:57 8.7 °F 7.0 °F 1022.9 in NE 3.2 mph 6.4 mph 89 % 0.0 in
08:02 8.6 °F 6.9 °F 1022.6 in ENE 1.6 mph 6.4 mph 89 % 0.0 in
08:12 8.9 °F 7.2 °F 1022.9 in NNE 4.8 mph 4.8 mph 89 % 0.0 in
08:17 9.1 °F 7.4 °F 1022.9 in NNE 3.2 mph 8.0 mph 89 % 0.0 in
08:22 9.4 °F 7.7 °F 1022.9 in Calm   8.0 mph 89 % 0.0 in
08:27 9.8 °F 7.9 °F 1022.9 in Calm   8.0 mph 88 % 0.0 in
08:32 10.1 °F 8.0 °F 1023.2 in Calm   8.0 mph 87 % 0.0 in
08:37 10.4 °F 8.3 °F 1022.9 in North 1.6 mph 1.6 mph 87 % 0.0 in
08:42 10.7 °F 8.6 °F 1023.2 in North 1.6 mph 1.6 mph 87 % 0.0 in
08:52 11.3 °F 9.0 °F 1023.2 in East 1.6 mph 3.2 mph 86 % 0.0 in
08:57 11.4 °F 9.0 °F 1022.9 in Calm   3.2 mph 85 % 0.0 in
09:02 12.1 °F 9.5 °F 1023.2 in Calm   3.2 mph 84 % 0.0 in
09:07 12.4 °F 9.4 °F 1023.2 in Calm   3.2 mph 82 % 0.0 in
09:12 12.6 °F 9.8 °F 1023.2 in Calm   3.2 mph 83 % 0.0 in
09:17 12.9 °F 10.3 °F 1023.2 in Calm   3.2 mph 84 % 0.0 in
09:22 13.3 °F 10.3 °F 1023.2 in Calm   3.2 mph 82 % 0.0 in
09:27 13.9 °F 10.5 °F 1023.2 in Calm   1.6 mph 80 % 0.0 in
09:32 13.8 °F 10.0 °F 1023.2 in Calm   1.6 mph 78 % 0.0 in
09:37 13.9 °F 10.1 °F 1023.2 in Calm   3.2 mph 78 % 0.0 in
09:42 14.2 °F 10.4 °F 1023.2 in Calm   3.2 mph 78 % 0.0 in
09:47 14.4 °F 10.2 °F 1023.2 in ENE 3.2 mph 3.2 mph 76 % 0.0 in
09:52 14.3 °F 10.1 °F 1023.2 in Calm   3.2 mph 76 % 0.0 in
09:57 14.5 °F 10.3 °F 1023.2 in SE 1.6 mph 4.8 mph 76 % 0.0 in
10:07 15.4 °F 10.8 °F 1023.6 in Calm   4.8 mph 74 % 0.0 in
10:12 15.7 °F 10.7 °F 1023.6 in Calm   1.6 mph 72 % 0.0 in
10:17 15.6 °F 10.6 °F 1023.6 in Calm   3.2 mph 72 % 0.0 in
10:22 15.6 °F 10.1 °F 1023.6 in NNE 3.2 mph 3.2 mph 70 % 0.0 in
10:32 16.1 °F 10.8 °F 1023.6 in NNE 1.6 mph 6.4 mph 71 % 0.0 in
10:37 16.1 °F 10.4 °F 1023.6 in North 3.2 mph 6.4 mph 69 % 0.0 in
10:42 15.9 °F 10.4 °F 1023.6 in NNE 6.4 mph 9.7 mph 70 % 0.0 in
10:47 16.0 °F 11.0 °F 1023.6 in NW 3.2 mph 9.7 mph 72 % 0.0 in
10:52 16.1 °F 10.8 °F 1023.9 in NNW 3.2 mph 9.7 mph 71 % 0.0 in
10:57 16.1 °F 10.8 °F 1023.9 in NNE 6.4 mph 9.7 mph 71 % 0.0 in
11:02 16.0 °F 10.7 °F 1023.9 in Calm   9.7 mph 71 % 0.0 in
11:07 16.2 °F 11.1 °F 1023.9 in NW 6.4 mph 9.7 mph 72 % 0.0 in
11:12 16.3 °F 11.5 °F 1023.9 in North 6.4 mph 12.9 mph 73 % 0.0 in
11:17 16.3 °F 11.0 °F 1023.9 in NNW 6.4 mph 12.9 mph 71 % 0.0 in
11:22 16.3 °F 11.2 °F 1024.3 in WNW 4.8 mph 11.3 mph 72 % 0.0 in
11:27 16.3 °F 11.0 °F 1024.3 in NNE 6.4 mph 11.3 mph 71 % 0.0 in
11:32 16.4 °F 11.3 °F 1024.3 in WNW 6.4 mph 11.3 mph 72 % 0.0 in
11:37 16.3 °F 11.7 °F 1024.3 in NW 4.8 mph 14.5 mph 74 % 0.0 in
11:42 16.4 °F 11.1 °F 1024.3 in North 12.9 mph 14.5 mph 71 % 0.0 in
11:47 16.3 °F 11.2 °F 1024.3 in North 11.3 mph 17.7 mph 72 % 0.0 in
11:52 16.4 °F 11.1 °F 1024.3 in NNW 9.7 mph 17.7 mph 71 % 0.0 in
11:57 16.3 °F 10.8 °F 1024.3 in NNW 6.4 mph 17.7 mph 70 % 0.0 in
12:02 16.4 °F 10.5 °F 1024.3 in NNE 9.7 mph 16.1 mph 68 % 0.0 in
12:07 16.4 °F 10.9 °F 1024.3 in NNE 6.4 mph 17.7 mph 70 % 0.0 in
12:12 16.5 °F 11.0 °F 1024.3 in NW 6.4 mph 17.7 mph 70 % 0.0 in
12:17 16.4 °F 11.3 °F 1024.3 in NNW 12.9 mph 17.7 mph 72 % 0.0 in
12:22 16.2 °F 10.5 °F 1024.3 in NW 6.4 mph 17.7 mph 69 % 0.0 in
12:27 16.2 °F 11.4 °F 1024.3 in NNW 6.4 mph 17.7 mph 73 % 0.0 in
12:32 16.3 °F 11.5 °F 1024.3 in North 6.4 mph 17.7 mph 73 % 0.0 in
12:37 16.2 °F 11.4 °F 1024.3 in NE 8.0 mph 14.5 mph 73 % 0.0 in
12:42 15.7 °F 11.3 °F 1024.3 in NNW 9.7 mph 19.3 mph 75 % 0.0 in
12:47 15.5 °F 11.1 °F 1024.3 in NNE 9.7 mph 19.3 mph 75 % 0.0 in
12:52 15.2 °F 10.8 °F 1024.3 in NNW 8.0 mph 19.3 mph 75 % 0.0 in
12:57 15.2 °F 10.8 °F 1024.3 in NNW 9.7 mph 17.7 mph 75 % 0.0 in
13:02 14.9 °F 10.7 °F 1024.3 in WNW 9.7 mph 16.1 mph 76 % 0.0 in
13:07 14.7 °F 10.9 °F 1024.3 in NNW 6.4 mph 19.3 mph 78 % 0.0 in
13:12 14.4 °F 10.4 °F 1024.6 in North 20.9 mph 20.9 mph 77 % 0.0 in
13:17 14.4 °F 10.6 °F 1024.6 in NW 6.4 mph 22.5 mph 78 % 0.0 in
13:22 14.2 °F 10.4 °F 1024.6 in NW 8.0 mph 22.5 mph 78 % 0.0 in
13:27 14.1 °F 10.3 °F 1024.6 in NNW 6.4 mph 22.5 mph 78 % 0.0 in
13:32 14.4 °F 10.8 °F 1024.3 in NW 9.7 mph 19.3 mph 79 % 0.0 in
13:37 14.4 °F 10.6 °F 1024.6 in NNE 6.4 mph 17.7 mph 78 % 0.0 in
13:42 14.2 °F 10.2 °F 1024.6 in North 6.4 mph 19.3 mph 77 % 0.0 in
13:47 14.2 °F 10.2 °F 1024.6 in NNW 9.7 mph 19.3 mph 77 % 0.0 in
13:52 14.4 °F 10.6 °F 1024.6 in NE 9.7 mph 17.7 mph 78 % 0.0 in
13:57 14.5 °F 10.5 °F 1024.6 in NNE 6.4 mph 17.7 mph 77 % 0.0 in
14:02 14.5 °F 10.3 °F 1024.6 in NNW 6.4 mph 19.3 mph 76 % 0.0 in
14:07 14.9 °F 10.9 °F 1024.6 in WNW 4.8 mph 19.3 mph 77 % 0.0 in
14:12 14.9 °F 10.7 °F 1024.3 in NE 8.0 mph 16.1 mph 76 % 0.0 in
14:17 15.1 °F 10.9 °F 1024.3 in WNW 3.2 mph 16.1 mph 76 % 0.0 in
14:22 15.2 °F 10.6 °F 1024.3 in NNW 4.8 mph 16.1 mph 74 % 0.0 in
14:27 15.4 °F 10.8 °F 1024.3 in NNW 6.4 mph 14.5 mph 74 % 0.0 in
14:32 15.6 °F 11.0 °F 1024.3 in NW 8.0 mph 14.5 mph 74 % 0.0 in
14:37 15.6 °F 10.6 °F 1024.6 in NNW 11.3 mph 19.3 mph 72 % 0.0 in
14:42 15.7 °F 11.1 °F 1024.3 in NW 8.0 mph 19.3 mph 74 % 0.0 in
14:52 15.7 °F 11.1 °F 1024.3 in North 8.0 mph 16.1 mph 74 % 0.0 in
14:57 15.9 °F 10.9 °F 1024.3 in NE 3.2 mph 16.1 mph 72 % 0.0 in
15:02 16.1 °F 11.1 °F 1024.3 in WNW 11.3 mph 17.7 mph 72 % 0.0 in
15:07 16.1 °F 10.8 °F 1024.3 in NNE 6.4 mph 17.7 mph 71 % 0.0 in
15:12 16.2 °F 11.4 °F 1024.3 in NNW 12.9 mph 17.7 mph 73 % 0.0 in
15:17 16.3 °F 11.0 °F 1024.3 in NNW 6.4 mph 19.3 mph 71 % 0.0 in
15:22 16.6 °F 10.7 °F 1024.3 in NW 9.7 mph 19.3 mph 68 % 0.0 in
15:27 16.5 °F 10.6 °F 1024.3 in NNW 8.0 mph 19.3 mph 68 % 0.0 in
15:32 16.7 °F 11.0 °F 1024.3 in West 8.0 mph 17.7 mph 69 % 0.0 in
15:37 16.8 °F 10.0 °F 1024.3 in NW 17.7 mph 17.7 mph 64 % 0.0 in
15:42 16.8 °F 9.7 °F 1024.3 in North 6.4 mph 17.7 mph 63 % 0.0 in
15:47 16.8 °F 9.7 °F 1024.3 in NNW 11.3 mph 19.3 mph 63 % 0.0 in
15:52 16.8 °F 9.7 °F 1023.9 in North 4.8 mph 20.9 mph 63 % 0.0 in
15:57 16.9 °F 9.6 °F 1023.9 in NNE 6.4 mph 20.9 mph 62 % 0.0 in
16:02 16.9 °F 9.6 °F 1023.9 in NNW 4.8 mph 20.9 mph 62 % 0.0 in
16:07 16.9 °F 9.6 °F 1023.9 in North 9.7 mph 27.4 mph 62 % 0.0 in
16:12 16.9 °F 9.1 °F 1023.9 in WNW 16.1 mph 27.4 mph 60 % 0.0 in
16:17 16.9 °F 9.3 °F 1023.9 in NNE 11.3 mph 20.9 mph 61 % 0.0 in
16:22 17.0 °F 8.7 °F 1023.9 in North 8.0 mph 20.9 mph 58 % 0.0 in
16:32 16.8 °F 8.7 °F 1023.9 in NNW 9.7 mph 20.9 mph 59 % 0.0 in
16:37 16.8 °F 8.7 °F 1023.6 in NNW 14.5 mph 20.9 mph 59 % 0.0 in
16:42 16.9 °F 9.1 °F 1023.6 in NW 11.3 mph 20.9 mph 60 % 0.0 in
16:47 16.9 °F 8.3 °F 1023.6 in NNW 11.3 mph 20.9 mph 57 % 0.0 in
16:52 16.9 °F 8.3 °F 1023.6 in North 6.4 mph 20.9 mph 57 % 0.0 in
16:57 16.9 °F 8.3 °F 1023.6 in NNW 6.4 mph 20.9 mph 57 % 0.0 in
17:02 17.1 °F 8.8 °F 1023.6 in NNE 8.0 mph 20.9 mph 58 % 0.0 in
17:12 17.1 °F 9.0 °F 1023.6 in NW 12.9 mph 20.9 mph 59 % 0.0 in
17:17 16.9 °F 8.3 °F 1023.2 in NW 8.0 mph 27.4 mph 57 % 0.0 in
17:22 17.1 °F 9.3 °F 1023.2 in NNE 8.0 mph 27.4 mph 60 % 0.0 in
17:27 17.1 °F 9.5 °F 1023.6 in NW 8.0 mph 24.1 mph 61 % 0.0 in
17:32 17.2 °F 9.6 °F 1023.6 in NNE 6.4 mph 22.5 mph 61 % 0.0 in
17:37 17.1 °F 9.3 °F 1023.6 in NNW 12.9 mph 22.5 mph 60 % 0.0 in
17:42 16.9 °F 9.3 °F 1023.6 in NNE 9.7 mph 19.3 mph 61 % 0.0 in
17:47 16.7 °F 9.4 °F 1023.6 in NW 9.7 mph 19.3 mph 62 % 0.0 in
17:52 16.8 °F 9.2 °F 1023.6 in North 14.5 mph 19.3 mph 61 % 0.0 in
17:57 16.7 °F 9.4 °F 1023.6 in NNW 9.7 mph 17.7 mph 62 % 0.0 in
18:02 16.4 °F 8.9 °F 1023.6 in NNW 19.3 mph 20.9 mph 61 % 0.0 in
18:12 16.2 °F 8.7 °F 1023.6 in NNW 8.0 mph 27.4 mph 61 % 0.0 in
18:17 16.2 °F 8.7 °F 1023.6 in NNE 17.7 mph 27.4 mph 61 % 0.0 in
18:22 16.2 °F 8.7 °F 1023.6 in North 6.4 mph 27.4 mph 61 % 0.0 in
18:27 16.2 °F 8.7 °F 1023.6 in NW 9.7 mph 24.1 mph 61 % 0.0 in
18:32 16.2 °F 8.9 °F 1023.6 in NW 16.1 mph 24.1 mph 62 % 0.0 in
18:37 16.2 °F 8.7 °F 1023.6 in WNW 9.7 mph 20.9 mph 61 % 0.0 in
18:42 16.0 °F 8.7 °F 1023.6 in NNE 6.4 mph 20.9 mph 62 % 0.0 in
18:47 16.1 °F 8.8 °F 1023.6 in NNW 9.7 mph 22.5 mph 62 % 0.0 in
18:52 15.9 °F 8.4 °F 1023.6 in North 16.1 mph 22.5 mph 61 % 0.0 in
18:57 15.6 °F 8.1 °F 1023.9 in NW 3.2 mph 22.5 mph 61 % 0.0 in
19:02 15.5 °F 8.5 °F 1023.9 in North 14.5 mph 24.1 mph 63 % 0.0 in
19:12 15.4 °F 8.2 °F 1023.9 in North 11.3 mph 17.7 mph 62 % 0.0 in
19:17 15.4 °F 8.4 °F 1023.9 in WNW 8.0 mph 22.5 mph 63 % 0.0 in
19:22 15.2 °F 8.2 °F 1023.9 in NNW 12.9 mph 22.5 mph 63 % 0.0 in
19:27 15.1 °F 8.3 °F 1023.9 in NW 6.4 mph 19.3 mph 64 % 0.0 in
19:32 14.9 °F 8.1 °F 1023.9 in NW 14.5 mph 20.9 mph 64 % 0.0 in
19:37 14.8 °F 8.1 °F 1023.9 in North 11.3 mph 20.9 mph 64 % 0.0 in
19:47 14.6 °F 8.1 °F 1023.9 in NNW 6.4 mph 20.9 mph 65 % 0.0 in
19:52 14.6 °F 8.3 °F 1023.9 in NE 16.1 mph 19.3 mph 66 % 0.0 in
19:57 14.6 °F 8.3 °F 1023.9 in North 6.4 mph 19.3 mph 66 % 0.0 in
20:02 14.6 °F 8.1 °F 1023.9 in NNE 12.9 mph 19.3 mph 65 % 0.0 in
20:12 14.4 °F 8.1 °F 1023.9 in NNW 6.4 mph 17.7 mph 66 % 0.0 in
20:17 14.2 °F 7.9 °F 1024.3 in NNE 11.3 mph 14.5 mph 66 % 0.0 in
20:22 14.1 °F 8.1 °F 1024.3 in NNW 4.8 mph 16.1 mph 67 % 0.0 in
20:32 13.8 °F 8.0 °F 1024.3 in North 8.0 mph 16.1 mph 68 % 0.0 in
20:37 13.6 °F 7.8 °F 1024.3 in North 9.7 mph 16.1 mph 68 % 0.0 in
20:42 13.5 °F 7.9 °F 1024.3 in North 9.7 mph 14.5 mph 69 % 0.0 in
20:47 13.3 °F 7.7 °F 1024.3 in North 4.8 mph 14.5 mph 69 % 0.0 in
20:52 13.3 °F 7.9 °F 1024.3 in NNW 4.8 mph 14.5 mph 70 % 0.0 in
20:57 13.2 °F 8.1 °F 1024.3 in NNE 1.6 mph 14.5 mph 71 % 0.0 in
21:02 13.0 °F 8.1 °F 1024.3 in NE 4.8 mph 11.3 mph 72 % 0.0 in
21:12 12.6 °F 7.9 °F 1024.6 in NE 3.2 mph 8.0 mph 73 % 0.0 in
21:17 12.4 °F 7.9 °F 1024.6 in Calm   6.4 mph 74 % 0.0 in
21:22 12.3 °F 8.0 °F 1024.6 in North 1.6 mph 6.4 mph 75 % 0.0 in
21:27 12.2 °F 7.9 °F 1024.6 in NNW 3.2 mph 6.4 mph 75 % 0.0 in
21:37 12.1 °F 8.0 °F 1024.9 in North 1.6 mph 8.0 mph 76 % 0.0 in
21:42 11.9 °F 7.8 °F 1024.9 in North 1.6 mph 8.0 mph 76 % 0.0 in
21:47 11.8 °F 7.7 °F 1024.9 in NNW 1.6 mph 8.0 mph 76 % 0.0 in
21:52 11.7 °F 7.8 °F 1024.9 in North 1.6 mph 6.4 mph 77 % 0.0 in
22:02 11.4 °F 7.7 °F 1024.9 in NNW 1.6 mph 4.8 mph 78 % 0.0 in
22:07 11.4 °F 7.7 °F 1025.3 in Calm   3.2 mph 78 % 0.0 in
22:12 11.3 °F 7.6 °F 1025.3 in Calm   3.2 mph 78 % 0.0 in
22:17 11.1 °F 7.6 °F 1025.3 in Calm   3.2 mph 79 % 0.0 in
22:22 10.9 °F 7.4 °F 1025.3 in Calm   3.2 mph 79 % 0.0 in
22:27 10.8 °F 7.5 °F 1025.3 in Calm   1.6 mph 80 % 0.0 in
22:32 10.8 °F 7.5 °F 1025.3 in Calm   1.6 mph 80 % 0.0 in
22:37 10.8 °F 7.5 °F 1025.3 in Calm   1.6 mph 80 % 0.0 in
22:42 10.7 °F 7.4 °F 1025.3 in Calm   1.6 mph 80 % 0.0 in
22:47 10.6 °F 7.3 °F 1025.3 in Calm   1.6 mph 80 % 0.0 in
22:52 10.4 °F 7.1 °F 1025.6 in WNW 1.6 mph 1.6 mph 80 % 0.0 in
22:57 10.4 °F 7.1 °F 1025.6 in NW 1.6 mph 3.2 mph 80 % 0.0 in
23:02 10.3 °F 7.0 °F 1025.6 in Calm   3.2 mph 80 % 0.0 in
23:07 10.3 °F 7.0 °F 1025.6 in Calm   3.2 mph 80 % 0.0 in
23:12 10.2 °F 7.1 °F 1025.6 in NW 1.6 mph 3.2 mph 81 % 0.0 in
23:17 10.2 °F 7.1 °F 1025.6 in NW 1.6 mph 3.2 mph 81 % 0.0 in
23:22 10.3 °F 7.2 °F 1025.6 in NW 1.6 mph 3.2 mph 81 % 0.0 in
23:27 10.3 °F 7.2 °F 1025.6 in Calm   3.2 mph 81 % 0.0 in
23:32 10.3 °F 7.2 °F 1025.6 in Calm   3.2 mph 81 % 0.0 in
23:37 10.2 °F 7.1 °F 1025.6 in NW 1.6 mph 3.2 mph 81 % 0.0 in
23:42 10.2 °F 7.1 °F 1025.6 in Calm   3.2 mph 81 % 0.0 in
23:47 10.3 °F 7.2 °F 1025.6 in NW 1.6 mph 3.2 mph 81 % 0.0 in
23:52 10.3 °F 7.2 °F 1025.6 in WNW 3.2 mph 4.8 mph 81 % 0.0 in
23:57 10.2 °F 7.1 °F 1025.6 in WNW 1.6 mph 4.8 mph 81 % 0.0 in
Meteo18
Compliments of Weather Underground - 4 mb

Script developed by  Jim McMurry - jmcmurry@mwt.net Adapted for the template by  Wim van der Kuil - Leuven-Template.eu

You find our weather info also at:

European Weather Network

Weather Underground

Equipment we use:

Weather-station
Davis Vue

Weather-program
Meteobridge

Weather-server
Raspberry PI 2 B+

Provider
1 and 1

Davis Vue

Meteobridge

Raspberry PI 2 B+

1 and 1